Time,TemperatureF,DewpointF,PressureIn,WindDirection,WindDirectionDegrees,WindSpeedMPH,WindSpeedGustMPH,Humidity,HourlyPrecipIn,Conditions,Clouds,dailyrainin,SolarRadiationWatts/m^2,SoftwareType,DateUTC
2013-05-01 00:01:00,69.9,20.2,29.65,SSW,194,0.0,1.0,15,0.00,,,0.00,0,LWC V2.00 B727,2013-05-01 07:01:00,
2013-05-01 00:06:00,70.8,19.3,29.65,SSW,194,1.0,1.0,14,0.00,,,0.00,0,LWC V2.00 B727,2013-05-01 07:06:00,
2013-05-01 00:11:00,71.3,19.6,29.65,SSW,194,0.0,0.0,14,0.00,,,0.00,0,LWC V2.00 B727,2013-05-01 07:11:00,
2013-05-01 00:16:00,71.5,18.1,29.65,SSW,194,0.0,0.0,13,0.00,,,0.00,0,LWC V2.00 B727,2013-05-01 07:16:00,
2013-05-01 00:21:00,71.6,18.2,29.65,SSW,194,0.0,1.0,13,0.00,,,0.00,0,LWC V2.00 B727,2013-05-01 07:21:00,
2013-05-01 00:26:00,71.6,18.2,29.64,SSW,194,0.0,0.0,13,0.00,,,0.00,0,LWC V2.00 B727,2013-05-01 07:26:00,
2013-05-01 00:31:00,71.4,19.7,29.65,SSW,194,0.0,0.0,14,0.00,,,0.00,0,LWC V2.00 B727,2013-05-01 07:31:00,
2013-05-01 00:36:00,71.1,19.5,29.65,SSW,194,0.0,0.0,14,0.00,,,0.00,0,LWC V2.00 B727,2013-05-01 07:36:00,
2013-05-01 00:41:00,70.3,18.9,29.65,SSW,194,0.0,1.0,14,0.00,,,0.00,0,LWC V2.00 B727,2013-05-01 07:41:00,
2013-05-01 00:46:00,69.6,19.9,29.65,SSW,194,0.0,0.0,15,0.00,,,0.00,0,LWC V2.00 B727,2013-05-01 07:46:00,
2013-05-01 00:51:00,69.5,19.8,29.65,SSW,194,0.0,1.0,15,0.00,,,0.00,0,LWC V2.00 B727,2013-05-01 07:51:00,
2013-05-01 00:56:00,69.3,19.7,29.65,SSW,194,0.0,0.0,15,0.00,,,0.00,0,LWC V2.00 B727,2013-05-01 07:56:00,
2013-05-01 01:01:00,69.1,19.5,29.65,SSW,194,0.0,0.0,15,0.00,,,0.00,0,LWC V2.00 B727,2013-05-01 08:01:00,
2013-05-01 01:06:00,69.7,20.0,29.65,SSW,194,0.0,0.0,15,0.00,,,0.00,0,LWC V2.00 B727,2013-05-01 08:06:00,
2013-05-01 01:11:00,69.9,20.2,29.65,SSW,194,0.0,0.0,15,0.00,,,0.00,0,LWC V2.00 B727,2013-05-01 08:11:00,
2013-05-01 01:16:00,69.8,20.1,29.64,SSW,194,0.0,0.0,15,0.00,,,0.00,0,LWC V2.00 B727,2013-05-01 08:16:00,
2013-05-01 01:21:00,69.4,19.8,29.64,SSW,194,0.0,0.0,15,0.00,,,0.00,0,LWC V2.00 B727,2013-05-01 08:21:00,
2013-05-01 01:26:00,68.8,19.3,29.64,SSW,194,0.0,0.0,15,0.00,,,0.00,0,LWC V2.00 B727,2013-05-01 08:26:00,
2013-05-01 01:31:00,68.5,19.0,29.64,SSW,194,0.0,0.0,15,0.00,,,0.00,0,LWC V2.00 B727,2013-05-01 08:31:00,
2013-05-01 01:36:00,68.3,18.9,29.64,SSW,194,0.0,0.0,15,0.00,,,0.00,0,LWC V2.00 B727,2013-05-01 08:36:00,
2013-05-01 01:41:00,67.7,19.9,29.64,SSW,194,0.0,0.0,16,0.00,,,0.00,0,LWC V2.00 B727,2013-05-01 08:41:00,
2013-05-01 01:46:00,67.9,20.1,29.64,SSW,194,0.0,0.0,16,0.00,,,0.00,0,LWC V2.00 B727,2013-05-01 08:46:00,
2013-05-01 01:51:00,68.5,19.0,29.64,SSW,194,0.0,0.0,15,0.00,,,0.00,0,LWC V2.00 B727,2013-05-01 08:51:00,
2013-05-01 01:56:00,68.3,20.4,29.64,SSW,194,0.0,0.0,16,0.00,,,0.00,0,LWC V2.00 B727,2013-05-01 08:56:00,
2013-05-01 02:01:00,68.6,19.1,29.65,SSW,194,0.0,0.0,15,0.00,,,0.00,0,LWC V2.00 B727,2013-05-01 09:01:00,
2013-05-01 02:06:00,67.9,20.1,29.64,SSW,194,0.0,0.0,16,0.00,,,0.00,0,LWC V2.00 B727,2013-05-01 09:06:00,
2013-05-01 02:11:00,68.0,20.1,29.65,SSW,194,0.0,0.0,16,0.00,,,0.00,0,LWC V2.00 B727,2013-05-01 09:11:00,
2013-05-01 02:16:00,68.3,20.4,29.65,SSW,194,0.0,0.0,16,0.00,,,0.00,0,LWC V2.00 B727,2013-05-01 09:16:00,
2013-05-01 02:21:00,68.4,20.5,29.65,SW,221,0.0,0.0,16,0.00,,,0.00,0,LWC V2.00 B727,2013-05-01 09:21:00,
2013-05-01 02:26:00,68.6,20.6,29.65,SW,221,0.0,0.0,16,0.00,,,0.00,0,LWC V2.00 B727,2013-05-01 09:26:00,
2013-05-01 02:31:00,68.0,21.6,29.65,SW,222,2.0,3.0,17,0.00,,,0.00,0,LWC V2.00 B727,2013-05-01 09:31:00,
2013-05-01 02:36:00,68.0,21.6,29.65,SW,215,5.0,6.0,17,0.00,,,0.00,0,LWC V2.00 B727,2013-05-01 09:36:00,
2013-05-01 02:41:00,68.2,21.7,29.65,SW,226,0.0,0.0,17,0.00,,,0.00,0,LWC V2.00 B727,2013-05-01 09:41:00,
2013-05-01 02:46:00,67.6,21.2,29.65,SW,226,0.0,0.0,17,0.00,,,0.00,0,LWC V2.00 B727,2013-05-01 09:46:00,
2013-05-01 02:51:00,66.9,20.7,29.66,SW,226,0.0,0.0,17,0.00,,,0.00,0,LWC V2.00 B727,2013-05-01 09:51:00,
2013-05-01 02:56:00,66.9,22.0,29.66,SW,226,0.0,0.0,18,0.00,,,0.00,0,LWC V2.00 B727,2013-05-01 09:56:00,
2013-05-01 03:01:00,66.7,21.9,29.66,SW,226,0.0,0.0,18,0.00,,,0.00,0,LWC V2.00 B727,2013-05-01 10:01:00,
2013-05-01 03:06:00,66.6,21.8,29.66,SW,226,0.0,0.0,18,0.00,,,0.00,0,LWC V2.00 B727,2013-05-01 10:06:00,
2013-05-01 03:11:00,66.1,21.4,29.66,SW,226,0.0,0.0,18,0.00,,,0.00,0,LWC V2.00 B727,2013-05-01 10:11:00,
2013-05-01 03:16:00,66.6,21.8,29.65,SW,226,0.0,0.0,18,0.00,,,0.00,0,LWC V2.00 B727,2013-05-01 10:16:00,
2013-05-01 03:21:00,66.5,21.7,29.66,SW,226,0.0,0.0,18,0.00,,,0.00,0,LWC V2.00 B727,2013-05-01 10:21:00,
2013-05-01 03:26:00,65.5,22.2,29.66,SW,226,0.0,0.0,19,0.00,,,0.00,0,LWC V2.00 B727,2013-05-01 10:26:00,
2013-05-01 03:31:00,65.3,22.0,29.66,SW,226,0.0,1.0,19,0.00,,,0.00,0,LWC V2.00 B727,2013-05-01 10:31:00,
2013-05-01 03:36:00,64.5,21.3,29.66,SW,225,1.0,1.0,19,0.00,,,0.00,0,LWC V2.00 B727,2013-05-01 10:36:00,
2013-05-01 03:41:00,64.5,21.3,29.66,SE,124,0.0,0.0,19,0.00,,,0.00,0,LWC V2.00 B727,2013-05-01 10:41:00,
2013-05-01 03:46:00,65.2,21.9,29.67,SE,124,0.0,0.0,19,0.00,,,0.00,0,LWC V2.00 B727,2013-05-01 10:46:00,
2013-05-01 03:51:00,65.3,22.0,29.67,SE,124,0.0,0.0,19,0.00,,,0.00,0,LWC V2.00 B727,2013-05-01 10:51:00,
2013-05-01 03:56:00,65.3,22.0,29.67,SE,124,0.0,0.0,19,0.00,,,0.00,0,LWC V2.00 B727,2013-05-01 10:56:00,
2013-05-01 04:01:00,65.5,22.2,29.67,SE,124,0.0,0.0,19,0.00,,,0.00,0,LWC V2.00 B727,2013-05-01 11:01:00,
2013-05-01 04:06:00,65.9,22.5,29.67,SE,124,0.0,0.0,19,0.00,,,0.00,0,LWC V2.00 B727,2013-05-01 11:06:00,
2013-05-01 04:11:00,66.2,22.7,29.67,SE,124,0.0,0.0,19,0.00,,,0.00,0,LWC V2.00 B727,2013-05-01 11:11:00,
2013-05-01 04:16:00,65.7,22.3,29.67,SE,124,0.0,0.0,19,0.00,,,0.00,0,LWC V2.00 B727,2013-05-01 11:16:00,
2013-05-01 04:21:00,64.8,22.8,29.67,SE,124,0.0,0.0,20,0.00,,,0.00,0,LWC V2.00 B727,2013-05-01 11:21:00,
2013-05-01 04:26:00,64.7,22.7,29.67,SE,124,0.0,2.0,20,0.00,,,0.00,0,LWC V2.00 B727,2013-05-01 11:26:00,
2013-05-01 04:31:00,63.9,23.2,29.68,SE,124,0.0,0.0,21,0.00,,,0.00,0,LWC V2.00 B727,2013-05-01 11:31:00,
2013-05-01 04:36:00,63.9,24.3,29.68,SE,124,0.0,1.0,22,0.00,,,0.00,0,LWC V2.00 B727,2013-05-01 11:36:00,
2013-05-01 04:41:00,63.0,23.6,29.68,SE,124,0.0,0.0,22,0.00,,,0.00,0,LWC V2.00 B727,2013-05-01 11:41:00,
2013-05-01 04:46:00,63.1,22.5,29.68,SE,124,0.0,0.0,21,0.00,,,0.00,0,LWC V2.00 B727,2013-05-01 11:46:00,
2013-05-01 04:51:00,63.7,23.0,29.68,SE,124,0.0,0.0,21,0.00,,,0.00,0,LWC V2.00 B727,2013-05-01 11:51:00,
2013-05-01 04:56:00,64.2,22.3,29.68,SE,124,0.0,0.0,20,0.00,,,0.00,0,LWC V2.00 B727,2013-05-01 11:56:00,
2013-05-01 05:01:00,64.8,22.8,29.68,SE,124,0.0,0.0,20,0.00,,,0.00,0,LWC V2.00 B727,2013-05-01 12:01:00,
2013-05-01 05:06:00,65.0,23.0,29.68,SE,126,1.0,1.0,20,0.00,,,0.00,0,LWC V2.00 B727,2013-05-01 12:06:00,
2013-05-01 05:11:00,65.5,23.4,29.69,SSW,207,3.0,3.0,20,0.00,,,0.00,0,LWC V2.00 B727,2013-05-01 12:11:00,
2013-05-01 05:16:00,66.0,23.8,29.69,SSW,208,0.0,0.0,20,0.00,,,0.00,0,LWC V2.00 B727,2013-05-01 12:16:00,
2013-05-01 05:21:00,67.3,23.6,29.69,SSW,192,0.0,2.0,19,0.00,,,0.00,0,LWC V2.00 B727,2013-05-01 12:21:00,
2013-05-01 05:26:00,67.6,23.9,29.69,SSW,192,0.0,0.0,19,0.00,,,0.00,0,LWC V2.00 B727,2013-05-01 12:26:00,
2013-05-01 05:31:00,67.5,23.8,29.69,West,277,0.0,3.0,19,0.00,,,0.00,0,LWC V2.00 B727,2013-05-01 12:31:00,
2013-05-01 05:36:00,67.7,24.0,29.70,SSW,212,0.0,4.0,19,0.00,,,0.00,5,LWC V2.00 B727,2013-05-01 12:36:00,
2013-05-01 05:41:00,68.4,23.2,29.70,SE,145,0.0,1.0,18,0.00,,,0.00,7,LWC V2.00 B727,2013-05-01 12:41:00,
2013-05-01 05:46:00,68.3,23.2,29.70,South,184,0.0,4.0,18,0.00,,,0.00,7,LWC V2.00 B727,2013-05-01 12:46:00,
2013-05-01 05:51:00,68.5,23.3,29.70,SSW,207,5.0,7.0,18,0.00,,,0.00,12,LWC V2.00 B727,2013-05-01 12:51:00,
2013-05-01 05:56:00,68.9,22.3,29.70,SSE,166,0.0,1.0,17,0.00,,,0.00,16,LWC V2.00 B727,2013-05-01 12:56:00,
2013-05-01 06:01:00,69.3,22.6,29.70,SSW,209,2.0,5.0,17,0.00,,,0.00,18,LWC V2.00 B727,2013-05-01 13:01:00,
2013-05-01 06:06:00,69.0,23.7,29.71,SSW,207,2.0,3.0,18,0.00,,,0.00,21,LWC V2.00 B727,2013-05-01 13:06:00,
2013-05-01 06:11:00,68.6,24.7,29.71,SSW,208,0.0,0.0,19,0.00,,,0.00,25,LWC V2.00 B727,2013-05-01 13:11:00,
2013-05-01 06:16:00,67.3,24.9,29.71,SSW,208,0.0,1.0,20,0.00,,,0.00,26,LWC V2.00 B727,2013-05-01 13:16:00,
2013-05-01 06:21:00,66.3,25.2,29.72,SSW,208,0.0,0.0,21,0.00,,,0.00,100,LWC V2.00 B727,2013-05-01 13:21:00,
2013-05-01 06:26:00,65.5,26.7,29.72,SSW,208,0.0,0.0,23,0.00,,,0.00,120,LWC V2.00 B727,2013-05-01 13:26:00,
2013-05-01 06:31:00,66.1,25.0,29.72,SSW,209,0.0,0.0,21,0.00,,,0.00,135,LWC V2.00 B727,2013-05-01 13:31:00,
2013-05-01 06:36:00,66.6,25.4,29.73,SSW,209,0.0,0.0,21,0.00,,,0.00,153,LWC V2.00 B727,2013-05-01 13:36:00,
2013-05-01 06:41:00,66.4,25.3,29.73,SSW,208,0.0,0.0,21,0.00,,,0.00,171,LWC V2.00 B727,2013-05-01 13:41:00,
2013-05-01 06:46:00,67.1,30.1,29.73,SSW,209,0.0,0.0,25,0.00,,,0.00,188,LWC V2.00 B727,2013-05-01 13:46:00,
2013-05-01 06:51:00,67.5,27.3,29.73,SSW,210,0.0,0.0,22,0.00,,,0.00,204,LWC V2.00 B727,2013-05-01 13:51:00,
2013-05-01 06:56:00,68.0,25.4,29.73,SSW,211,0.0,0.0,20,0.00,,,0.00,221,LWC V2.00 B727,2013-05-01 13:56:00,
2013-05-01 07:01:00,68.2,27.9,29.74,SSW,211,0.0,0.0,22,0.00,,,0.00,239,LWC V2.00 B727,2013-05-01 14:01:00,
2013-05-01 07:06:00,68.9,26.2,29.74,SSW,213,0.0,1.0,20,0.00,,,0.00,251,LWC V2.00 B727,2013-05-01 14:06:00,
2013-05-01 07:11:00,69.4,26.6,29.74,SSW,213,1.0,2.0,20,0.00,,,0.00,278,LWC V2.00 B727,2013-05-01 14:11:00,
2013-05-01 07:16:00,69.9,27.0,29.74,SW,215,0.0,3.0,20,0.00,,,0.00,297,LWC V2.00 B727,2013-05-01 14:16:00,
2013-05-01 07:21:00,70.2,27.2,29.74,SW,217,0.0,0.0,20,0.00,,,0.00,315,LWC V2.00 B727,2013-05-01 14:21:00,
2013-05-01 07:26:00,70.8,27.7,29.74,SW,217,0.0,2.0,20,0.00,,,0.00,330,LWC V2.00 B727,2013-05-01 14:26:00,
2013-05-01 07:31:00,71.9,24.7,29.75,SW,220,3.0,4.0,17,0.00,,,0.00,352,LWC V2.00 B727,2013-05-01 14:31:00,
2013-05-01 07:36:00,73.0,25.6,29.75,SSW,209,3.0,8.0,17,0.00,,,0.00,369,LWC V2.00 B727,2013-05-01 14:36:00,
2013-05-01 07:41:00,73.6,23.1,29.75,SW,218,4.0,7.0,15,0.00,,,0.00,388,LWC V2.00 B727,2013-05-01 14:41:00,
2013-05-01 07:46:00,74.0,23.4,29.75,SSW,209,5.0,9.0,15,0.00,,,0.00,410,LWC V2.00 B727,2013-05-01 14:46:00,
2013-05-01 07:51:00,74.3,22.0,29.76,SW,220,4.0,11.0,14,0.00,,,0.00,427,LWC V2.00 B727,2013-05-01 14:51:00,
2013-05-01 07:56:00,74.5,22.2,29.76,SSW,206,4.0,10.0,14,0.00,,,0.00,443,LWC V2.00 B727,2013-05-01 14:56:00,
2013-05-01 08:01:00,74.7,24.0,29.76,SSW,201,2.0,7.0,15,0.00,,,0.00,459,LWC V2.00 B727,2013-05-01 15:01:00,
2013-05-01 08:06:00,74.9,22.5,29.76,SW,225,7.0,7.0,14,0.00,,,0.00,478,LWC V2.00 B727,2013-05-01 15:06:00,
2013-05-01 08:11:00,75.1,22.7,29.76,SSW,200,7.0,9.0,14,0.00,,,0.00,496,LWC V2.00 B727,2013-05-01 15:11:00,
2013-05-01 08:16:00,75.4,22.9,29.76,SSW,209,6.0,8.0,14,0.00,,,0.00,513,LWC V2.00 B727,2013-05-01 15:16:00,
2013-05-01 08:21:00,75.8,23.2,29.76,SW,227,4.0,7.0,14,0.00,,,0.00,531,LWC V2.00 B727,2013-05-01 15:21:00,
2013-05-01 08:26:00,75.9,24.9,29.76,SW,222,6.0,7.0,15,0.00,,,0.00,548,LWC V2.00 B727,2013-05-01 15:26:00,
2013-05-01 08:31:00,76.1,25.1,29.76,SSW,207,6.0,8.0,15,0.00,,,0.00,563,LWC V2.00 B727,2013-05-01 15:31:00,
2013-05-01 08:36:00,75.9,23.3,29.76,SSW,205,4.0,10.0,14,0.00,,,0.00,582,LWC V2.00 B727,2013-05-01 15:36:00,
2013-05-01 08:41:00,76.1,21.7,29.76,SW,228,5.0,9.0,13,0.00,,,0.00,598,LWC V2.00 B727,2013-05-01 15:41:00,
2013-05-01 08:46:00,76.4,23.7,29.76,SSW,212,2.0,8.0,14,0.00,,,0.00,613,LWC V2.00 B727,2013-05-01 15:46:00,
2013-05-01 08:51:00,76.9,20.4,29.76,SSW,192,4.0,7.0,12,0.00,,,0.00,629,LWC V2.00 B727,2013-05-01 15:51:00,
2013-05-01 08:56:00,76.8,22.2,29.76,SSW,204,2.0,10.0,13,0.00,,,0.00,647,LWC V2.00 B727,2013-05-01 15:56:00,
2013-05-01 09:01:00,76.9,20.4,29.76,SW,236,4.0,6.0,12,0.00,,,0.00,663,LWC V2.00 B727,2013-05-01 16:01:00,
2013-05-01 09:06:00,77.2,18.6,29.76,WSW,238,6.0,10.0,11,0.00,,,0.00,677,LWC V2.00 B727,2013-05-01 16:06:00,
2013-05-01 09:11:00,77.7,21.0,29.76,WSW,246,7.0,10.0,12,0.00,,,0.00,691,LWC V2.00 B727,2013-05-01 16:11:00,
2013-05-01 09:16:00,78.0,19.2,29.76,WSW,244,3.0,8.0,11,0.00,,,0.00,707,LWC V2.00 B727,2013-05-01 16:16:00,
2013-05-01 09:21:00,78.0,19.2,29.76,SW,226,5.0,9.0,11,0.00,,,0.00,719,LWC V2.00 B727,2013-05-01 16:21:00,
2013-05-01 09:26:00,78.2,17.2,29.77,SW,216,6.0,8.0,10,0.00,,,0.00,735,LWC V2.00 B727,2013-05-01 16:26:00,
2013-05-01 09:31:00,78.3,17.3,29.77,SSW,205,6.0,11.0,10,0.00,,,0.00,749,LWC V2.00 B727,2013-05-01 16:31:00,
2013-05-01 09:36:00,78.5,15.0,29.77,West,269,3.0,13.0,9,0.00,,,0.00,763,LWC V2.00 B727,2013-05-01 16:36:00,
2013-05-01 09:41:00,78.7,17.6,29.77,SW,223,6.0,9.0,10,0.00,,,0.00,775,LWC V2.00 B727,2013-05-01 16:41:00,
2013-05-01 09:46:00,78.6,17.5,29.77,WSW,244,4.0,6.0,10,0.00,,,0.00,788,LWC V2.00 B727,2013-05-01 16:46:00,
2013-05-01 09:51:00,78.9,17.7,29.77,SW,214,8.0,14.0,10,0.00,,,0.00,798,LWC V2.00 B727,2013-05-01 16:51:00,
2013-05-01 09:56:00,78.6,17.5,29.77,WSW,244,7.0,10.0,10,0.00,,,0.00,814,LWC V2.00 B727,2013-05-01 16:56:00,
2013-05-01 10:01:00,78.7,15.1,29.77,SSW,198,9.0,10.0,9,0.00,,,0.00,824,LWC V2.00 B727,2013-05-01 17:01:00,
2013-05-01 10:06:00,78.9,19.9,29.77,SW,214,8.0,13.0,11,0.00,,,0.00,835,LWC V2.00 B727,2013-05-01 17:06:00,
2013-05-01 10:11:00,79.0,17.8,29.77,SW,228,7.0,10.0,10,0.00,,,0.00,847,LWC V2.00 B727,2013-05-01 17:11:00,
2013-05-01 10:16:00,79.5,18.2,29.77,SW,216,5.0,9.0,10,0.00,,,0.00,856,LWC V2.00 B727,2013-05-01 17:16:00,
2013-05-01 10:21:00,79.7,15.9,29.77,WSW,238,6.0,8.0,9,0.00,,,0.00,868,LWC V2.00 B727,2013-05-01 17:21:00,
2013-05-01 10:26:00,80.3,21.0,29.77,SSW,209,9.0,12.0,11,0.00,,,0.00,875,LWC V2.00 B727,2013-05-01 17:26:00,
2013-05-01 10:31:00,80.4,18.9,29.77,WSW,249,6.0,12.0,10,0.00,,,0.00,884,LWC V2.00 B727,2013-05-01 17:31:00,
2013-05-01 10:36:00,80.5,18.9,29.77,WSW,238,8.0,15.0,10,0.00,,,0.00,891,LWC V2.00 B727,2013-05-01 17:36:00,
2013-05-01 10:41:00,80.3,18.8,29.77,SW,234,5.0,18.0,10,0.00,,,0.00,904,LWC V2.00 B727,2013-05-01 17:41:00,
2013-05-01 10:46:00,80.9,16.8,29.77,SSW,205,10.0,11.0,9,0.00,,,0.00,914,LWC V2.00 B727,2013-05-01 17:46:00,
2013-05-01 10:51:00,80.4,16.4,29.77,WSW,254,6.0,13.0,9,0.00,,,0.00,923,LWC V2.00 B727,2013-05-01 17:51:00,
2013-05-01 10:56:00,80.7,16.6,29.77,SW,227,4.0,15.0,9,0.00,,,0.00,930,LWC V2.00 B727,2013-05-01 17:56:00,
2013-05-01 11:01:00,81.0,19.3,29.77,SW,227,14.0,14.0,10,0.00,,,0.00,935,LWC V2.00 B727,2013-05-01 18:01:00,
2013-05-01 11:06:00,81.0,16.9,29.78,SW,221,6.0,11.0,9,0.00,,,0.00,940,LWC V2.00 B727,2013-05-01 18:06:00,
2013-05-01 11:11:00,81.4,17.2,29.77,SSW,210,7.0,12.0,9,0.00,,,0.00,947,LWC V2.00 B727,2013-05-01 18:11:00,
2013-05-01 11:16:00,82.2,17.8,29.77,SSW,211,7.0,11.0,9,0.00,,,0.00,956,LWC V2.00 B727,2013-05-01 18:16:00,
2013-05-01 11:21:00,81.6,17.3,29.77,SW,236,6.0,11.0,9,0.00,,,0.00,960,LWC V2.00 B727,2013-05-01 18:21:00,
2013-05-01 11:26:00,82.3,17.8,29.77,SW,232,4.0,7.0,9,0.00,,,0.00,963,LWC V2.00 B727,2013-05-01 18:26:00,
2013-05-01 11:31:00,82.5,18.0,29.77,SSW,198,7.0,11.0,9,0.00,,,0.00,969,LWC V2.00 B727,2013-05-01 18:31:00,
2013-05-01 11:36:00,83.0,18.4,29.77,SSW,207,6.0,12.0,9,0.00,,,0.00,976,LWC V2.00 B727,2013-05-01 18:36:00,
2013-05-01 11:41:00,81.9,17.5,29.77,West,279,3.0,11.0,9,0.00,,,0.00,976,LWC V2.00 B727,2013-05-01 18:41:00,
2013-05-01 11:46:00,83.1,15.7,29.77,SW,235,15.0,15.0,8,0.00,,,0.00,979,LWC V2.00 B727,2013-05-01 18:46:00,
2013-05-01 11:51:00,82.8,18.2,29.77,SW,223,4.0,12.0,9,0.00,,,0.00,983,LWC V2.00 B727,2013-05-01 18:51:00,
2013-05-01 11:56:00,83.2,18.5,29.77,SW,225,5.0,11.0,9,0.00,,,0.00,986,LWC V2.00 B727,2013-05-01 18:56:00,
2013-05-01 12:01:00,83.8,19.0,29.77,WSW,239,5.0,5.0,9,0.00,,,0.00,983,LWC V2.00 B727,2013-05-01 19:01:00,
2013-05-01 12:06:00,83.8,19.0,29.77,West,281,0.0,6.0,9,0.00,,,0.00,988,LWC V2.00 B727,2013-05-01 19:06:00,
2013-05-01 12:11:00,84.5,16.8,29.77,WSW,244,3.0,11.0,8,0.00,,,0.00,990,LWC V2.00 B727,2013-05-01 19:11:00,
2013-05-01 12:16:00,85.0,17.1,29.77,NNE,12,0.0,7.0,8,0.00,,,0.00,991,LWC V2.00 B727,2013-05-01 19:16:00,
2013-05-01 12:21:00,84.3,16.6,29.77,SSW,209,7.0,12.0,8,0.00,,,0.00,993,LWC V2.00 B727,2013-05-01 19:21:00,
2013-05-01 12:26:00,84.6,16.8,29.77,SSW,200,7.0,9.0,8,0.00,,,0.00,995,LWC V2.00 B727,2013-05-01 19:26:00,
2013-05-01 12:31:00,84.5,16.8,29.77,SW,227,3.0,10.0,8,0.00,,,0.00,991,LWC V2.00 B727,2013-05-01 19:31:00,
2013-05-01 12:36:00,84.5,16.8,29.77,West,264,3.0,6.0,8,0.00,,,0.00,988,LWC V2.00 B727,2013-05-01 19:36:00,
2013-05-01 12:41:00,85.8,14.6,29.77,WSW,240,4.0,7.0,7,0.00,,,0.00,991,LWC V2.00 B727,2013-05-01 19:41:00,
2013-05-01 12:46:00,86.1,17.9,29.77,WSW,247,6.0,7.0,8,0.00,,,0.00,986,LWC V2.00 B727,2013-05-01 19:46:00,
2013-05-01 12:51:00,85.1,14.1,29.77,South,186,4.0,9.0,7,0.00,,,0.00,986,LWC V2.00 B727,2013-05-01 19:51:00,
2013-05-01 12:56:00,85.3,10.8,29.77,WSW,254,1.0,10.0,6,0.00,,,0.00,983,LWC V2.00 B727,2013-05-01 19:56:00,
2013-05-01 13:01:00,84.3,16.6,29.76,SSW,207,4.0,10.0,8,0.00,,,0.00,979,LWC V2.00 B727,2013-05-01 20:01:00,
2013-05-01 13:06:00,86.2,14.9,29.77,SW,224,5.0,8.0,7,0.00,,,0.00,977,LWC V2.00 B727,2013-05-01 20:06:00,
2013-05-01 13:11:00,85.7,14.6,29.76,WNW,302,2.0,6.0,7,0.00,,,0.00,972,LWC V2.00 B727,2013-05-01 20:11:00,
2013-05-01 13:16:00,86.6,15.2,29.76,West,262,5.0,9.0,7,0.00,,,0.00,969,LWC V2.00 B727,2013-05-01 20:16:00,
2013-05-01 13:21:00,86.9,15.4,29.76,SW,227,5.0,9.0,7,0.00,,,0.00,963,LWC V2.00 B727,2013-05-01 20:21:00,
2013-05-01 13:26:00,85.6,14.5,29.76,WNW,286,2.0,2.0,7,0.00,,,0.00,954,LWC V2.00 B727,2013-05-01 20:26:00,
2013-05-01 13:31:00,86.7,15.3,29.76,NNW,328,3.0,7.0,7,0.00,,,0.00,953,LWC V2.00 B727,2013-05-01 20:31:00,
2013-05-01 13:35:00,88.4,13.0,29.77,WSW,258,3.0,12.0,6,0.00,,,0.00,949,LWC V2.00 B727,2013-05-01 20:35:00,
2013-05-01 13:40:00,88.4,8.9,29.77,WSW,256,5.0,10.0,5,0.00,,,0.00,942,LWC V2.00 B727,2013-05-01 20:40:00,
2013-05-01 13:45:00,87.8,12.6,29.76,West,270,0.0,4.0,6,0.00,,,0.00,933,LWC V2.00 B727,2013-05-01 20:45:00,
2013-05-01 13:50:00,87.7,12.5,29.76,WNW,293,6.0,9.0,6,0.00,,,0.00,928,LWC V2.00 B727,2013-05-01 20:50:00,
2013-05-01 13:55:00,87.5,12.4,29.76,West,274,3.0,10.0,6,0.00,,,0.00,921,LWC V2.00 B727,2013-05-01 20:55:00,
2013-05-01 14:00:00,87.3,12.2,29.76,WSW,249,2.0,5.0,6,0.00,,,0.00,909,LWC V2.00 B727,2013-05-01 21:00:00,
2013-05-01 14:05:00,87.2,12.2,29.76,WSW,251,9.0,9.0,6,0.00,,,0.00,904,LWC V2.00 B727,2013-05-01 21:05:00,
2013-05-01 14:10:00,87.8,12.6,29.76,SSW,195,7.0,11.0,6,0.00,,,0.00,891,LWC V2.00 B727,2013-05-01 21:10:00,
2013-05-01 14:15:00,87.3,12.2,29.76,West,268,1.0,9.0,6,0.00,,,0.00,884,LWC V2.00 B727,2013-05-01 21:15:00,
2013-05-01 14:20:00,88.2,8.8,29.76,WSW,242,4.0,6.0,5,0.00,,,0.00,872,LWC V2.00 B727,2013-05-01 21:20:00,
2013-05-01 14:25:00,87.6,8.4,29.76,West,277,4.0,7.0,5,0.00,,,0.00,863,LWC V2.00 B727,2013-05-01 21:25:00,
2013-05-01 14:30:00,87.4,8.2,29.75,West,274,3.0,4.0,5,0.00,,,0.00,851,LWC V2.00 B727,2013-05-01 21:30:00,
2013-05-01 14:35:00,87.3,8.2,29.75,NW,304,7.0,8.0,5,0.00,,,0.00,838,LWC V2.00 B727,2013-05-01 21:35:00,
2013-05-01 14:40:00,88.5,9.0,29.75,WSW,258,4.0,10.0,5,0.00,,,0.00,828,LWC V2.00 B727,2013-05-01 21:40:00,
2013-05-01 14:45:00,89.0,9.3,29.75,SW,229,5.0,5.0,5,0.00,,,0.00,819,LWC V2.00 B727,2013-05-01 21:45:00,
2013-05-01 14:50:00,88.7,4.2,29.75,WNW,290,2.0,5.0,4,0.00,,,0.00,807,LWC V2.00 B727,2013-05-01 21:50:00,
2013-05-01 14:55:00,88.8,4.3,29.75,NW,321,6.0,10.0,4,0.00,,,0.00,793,LWC V2.00 B727,2013-05-01 21:55:00,
2013-05-01 15:00:00,88.0,3.8,29.75,WNW,284,6.0,6.0,4,0.00,,,0.00,782,LWC V2.00 B727,2013-05-01 22:00:00,
2013-05-01 15:05:00,88.1,3.8,29.75,West,275,4.0,6.0,4,0.00,,,0.00,768,LWC V2.00 B727,2013-05-01 22:05:00,
2013-05-01 15:10:00,88.6,4.2,29.75,WSW,238,5.0,7.0,4,0.00,,,0.00,752,LWC V2.00 B727,2013-05-01 22:10:00,
2013-05-01 15:15:00,89.2,4.6,29.75,West,266,1.0,6.0,4,0.00,,,0.00,740,LWC V2.00 B727,2013-05-01 22:15:00,
2013-05-01 15:20:00,88.8,-1.8,29.75,NW,317,3.0,8.0,3,0.00,,,0.00,728,LWC V2.00 B727,2013-05-01 22:20:00,
2013-05-01 15:25:00,88.9,-1.8,29.75,West,273,4.0,7.0,3,0.00,,,0.00,714,LWC V2.00 B727,2013-05-01 22:25:00,
2013-05-01 15:30:00,88.8,4.3,29.75,NW,306,0.0,3.0,4,0.00,,,0.00,696,LWC V2.00 B727,2013-05-01 22:30:00,
2013-05-01 15:35:00,88.3,4.0,29.75,SW,234,2.0,7.0,4,0.00,,,0.00,682,LWC V2.00 B727,2013-05-01 22:35:00,
2013-05-01 15:40:00,88.0,3.8,29.75,WSW,244,1.0,7.0,4,0.00,,,0.00,664,LWC V2.00 B727,2013-05-01 22:40:00,
2013-05-01 15:45:00,87.0,3.1,29.74,South,190,1.0,6.0,4,0.00,,,0.00,647,LWC V2.00 B727,2013-05-01 22:45:00,
2013-05-01 15:50:00,87.8,8.5,29.74,SSE,156,3.0,8.0,5,0.00,,,0.00,633,LWC V2.00 B727,2013-05-01 22:50:00,
2013-05-01 15:55:00,87.6,3.5,29.74,SSW,194,4.0,6.0,4,0.00,,,0.00,617,LWC V2.00 B727,2013-05-01 22:55:00,
2013-05-01 16:00:00,88.1,3.8,29.74,SW,221,1.0,6.0,4,0.00,,,0.00,599,LWC V2.00 B727,2013-05-01 23:00:00,
2013-05-01 16:05:00,88.1,3.8,29.74,WSW,252,1.0,7.0,4,0.00,,,0.00,582,LWC V2.00 B727,2013-05-01 23:05:00,
2013-05-01 16:10:00,88.1,3.8,29.74,West,265,1.0,4.0,4,0.00,,,0.00,568,LWC V2.00 B727,2013-05-01 23:10:00,
2013-05-01 16:15:00,87.7,8.4,29.75,SW,222,2.0,7.0,5,0.00,,,0.00,550,LWC V2.00 B727,2013-05-01 23:15:00,
2013-05-01 16:20:00,87.6,8.4,29.75,West,263,2.0,6.0,5,0.00,,,0.00,533,LWC V2.00 B727,2013-05-01 23:20:00,
2013-05-01 16:25:00,87.4,8.2,29.75,SSW,210,6.0,7.0,5,0.00,,,0.00,513,LWC V2.00 B727,2013-05-01 23:25:00,
2013-05-01 16:30:00,87.2,8.1,29.75,SW,221,2.0,6.0,5,0.00,,,0.00,496,LWC V2.00 B727,2013-05-01 23:30:00,
2013-05-01 16:35:00,87.4,8.2,29.75,SSW,205,5.0,5.0,5,0.00,,,0.00,476,LWC V2.00 B727,2013-05-01 23:35:00,
2013-05-01 16:40:00,86.2,11.4,29.75,SW,227,5.0,6.0,6,0.00,,,0.00,462,LWC V2.00 B727,2013-05-01 23:40:00,
2013-05-01 16:45:00,86.8,11.9,29.75,WNW,287,0.0,6.0,6,0.00,,,0.00,443,LWC V2.00 B727,2013-05-01 23:45:00,
2013-05-01 16:50:00,87.2,12.2,29.75,West,275,4.0,7.0,6,0.00,,,0.00,425,LWC V2.00 B727,2013-05-01 23:50:00,
2013-05-01 16:55:00,87.5,12.4,29.75,NNW,339,0.0,7.0,6,0.00,,,0.00,406,LWC V2.00 B727,2013-05-01 23:55:00,
2013-05-01 17:00:00,87.1,12.1,29.75,SW,229,5.0,5.0,6,0.00,,,0.00,388,LWC V2.00 B727,2013-05-02 00:00:00,
2013-05-01 17:05:00,86.9,11.9,29.75,SW,221,4.0,5.0,6,0.00,,,0.00,369,LWC V2.00 B727,2013-05-02 00:05:00,
2013-05-01 17:10:00,86.4,11.6,29.75,SW,215,4.0,6.0,6,0.00,,,0.00,350,LWC V2.00 B727,2013-05-02 00:10:00,
2013-05-01 17:15:00,86.2,11.4,29.75,SW,222,2.0,4.0,6,0.00,,,0.00,330,LWC V2.00 B727,2013-05-02 00:15:00,
2013-05-01 17:20:00,86.2,11.4,29.75,WNW,292,2.0,2.0,6,0.00,,,0.00,315,LWC V2.00 B727,2013-05-02 00:20:00,
2013-05-01 17:25:00,86.6,11.7,29.75,WNW,300,0.0,6.0,6,0.00,,,0.00,297,LWC V2.00 B727,2013-05-02 00:25:00,
2013-05-01 17:30:00,86.1,11.4,29.75,WNW,292,5.0,7.0,6,0.00,,,0.00,276,LWC V2.00 B727,2013-05-02 00:30:00,
2013-05-01 17:35:00,85.9,11.2,29.75,WNW,298,2.0,8.0,6,0.00,,,0.00,257,LWC V2.00 B727,2013-05-02 00:35:00,
2013-05-01 17:40:00,85.9,11.2,29.75,NW,315,0.0,7.0,6,0.00,,,0.00,236,LWC V2.00 B727,2013-05-02 00:40:00,
2013-05-01 17:45:00,85.5,14.4,29.75,NW,325,2.0,5.0,7,0.00,,,0.00,216,LWC V2.00 B727,2013-05-02 00:45:00,
2013-05-01 17:50:00,85.1,14.1,29.75,NW,305,0.0,2.0,7,0.00,,,0.00,195,LWC V2.00 B727,2013-05-02 00:50:00,
2013-05-01 17:55:00,85.2,17.3,29.75,WNW,286,4.0,5.0,8,0.00,,,0.00,174,LWC V2.00 B727,2013-05-02 00:55:00,
2013-05-01 18:00:00,84.8,17.0,29.75,WNW,286,0.0,4.0,8,0.00,,,0.00,155,LWC V2.00 B727,2013-05-02 01:00:00,
2013-05-01 18:05:00,84.7,13.8,29.75,West,278,3.0,7.0,7,0.00,,,0.00,135,LWC V2.00 B727,2013-05-02 01:05:00,
2013-05-01 18:10:00,84.3,13.6,29.75,WSW,252,1.0,5.0,7,0.00,,,0.00,114,LWC V2.00 B727,2013-05-02 01:10:00,
2013-05-01 18:15:00,84.1,13.4,29.76,WNW,288,1.0,5.0,7,0.00,,,0.00,95,LWC V2.00 B727,2013-05-02 01:15:00,
2013-05-01 18:20:00,83.6,13.0,29.76,NW,308,2.0,4.0,7,0.00,,,0.00,79,LWC V2.00 B727,2013-05-02 01:20:00,
2013-05-01 18:25:00,83.2,15.8,29.76,NW,304,1.0,6.0,8,0.00,,,0.00,65,LWC V2.00 B727,2013-05-02 01:25:00,
2013-05-01 18:30:00,82.8,15.5,29.76,West,268,0.0,2.0,8,0.00,,,0.00,51,LWC V2.00 B727,2013-05-02 01:30:00,
2013-05-01 18:35:00,82.3,15.1,29.77,West,259,2.0,4.0,8,0.00,,,0.00,30,LWC V2.00 B727,2013-05-02 01:35:00,
2013-05-01 18:40:00,81.9,17.5,29.77,NW,304,1.0,4.0,9,0.00,,,0.00,23,LWC V2.00 B727,2013-05-02 01:40:00,
2013-05-01 18:45:00,81.6,17.3,29.77,WNW,299,0.0,3.0,9,0.00,,,0.00,19,LWC V2.00 B727,2013-05-02 01:45:00,
2013-05-01 18:50:00,81.3,17.1,29.77,West,275,3.0,3.0,9,0.00,,,0.00,16,LWC V2.00 B727,2013-05-02 01:50:00,
2013-05-01 18:55:00,81.0,16.9,29.77,WNW,293,0.0,4.0,9,0.00,,,0.00,12,LWC V2.00 B727,2013-05-02 01:55:00,
2013-05-01 19:00:00,80.6,19.0,29.78,WNW,302,0.0,2.0,10,0.00,,,0.00,9,LWC V2.00 B727,2013-05-02 02:00:00,
2013-05-01 19:05:00,79.8,18.4,29.78,WNW,302,0.0,0.0,10,0.00,,,0.00,5,LWC V2.00 B727,2013-05-02 02:05:00,
2013-05-01 19:10:00,78.7,19.8,29.78,WNW,302,0.0,0.0,11,0.00,,,0.00,0,LWC V2.00 B727,2013-05-02 02:10:00,
2013-05-01 19:15:00,77.8,19.1,29.78,WNW,302,0.0,1.0,11,0.00,,,0.00,0,LWC V2.00 B727,2013-05-02 02:15:00,
2013-05-01 19:20:00,77.5,20.9,29.79,NW,306,0.0,0.0,12,0.00,,,0.00,0,LWC V2.00 B727,2013-05-02 02:20:00,
2013-05-01 19:25:00,77.0,20.5,29.79,NNW,331,0.0,1.0,12,0.00,,,0.00,0,LWC V2.00 B727,2013-05-02 02:25:00,
2013-05-01 19:30:00,76.6,20.2,29.79,NNW,331,0.0,1.0,12,0.00,,,0.00,0,LWC V2.00 B727,2013-05-02 02:30:00,
2013-05-01 19:35:00,76.0,21.6,29.79,NNW,331,0.0,0.0,13,0.00,,,0.00,0,LWC V2.00 B727,2013-05-02 02:35:00,
2013-05-01 19:40:00,75.6,21.3,29.79,NNW,331,0.0,1.0,13,0.00,,,0.00,0,LWC V2.00 B727,2013-05-02 02:40:00,
2013-05-01 19:45:00,75.2,21.0,29.80,NNW,331,0.0,1.0,13,0.00,,,0.00,0,LWC V2.00 B727,2013-05-02 02:45:00,
2013-05-01 19:50:00,75.0,20.8,29.80,NNW,334,0.0,1.0,13,0.00,,,0.00,0,LWC V2.00 B727,2013-05-02 02:50:00,
2013-05-01 19:55:00,75.0,20.8,29.80,NNW,337,0.0,0.0,13,0.00,,,0.00,0,LWC V2.00 B727,2013-05-02 02:55:00,
2013-05-01 20:00:00,74.4,22.1,29.80,NNW,342,0.0,1.0,14,0.00,,,0.00,0,LWC V2.00 B727,2013-05-02 03:00:00,
2013-05-01 20:05:00,74.2,21.9,29.80,NNW,348,0.0,1.0,14,0.00,,,0.00,0,LWC V2.00 B727,2013-05-02 03:05:00,
2013-05-01 20:10:00,73.7,21.5,29.80,NNW,348,0.0,1.0,14,0.00,,,0.00,0,LWC V2.00 B727,2013-05-02 03:10:00,
2013-05-01 20:15:00,73.7,21.5,29.81,North,349,0.0,1.0,14,0.00,,,0.00,0,LWC V2.00 B727,2013-05-02 03:15:00,
2013-05-01 20:20:00,73.9,21.7,29.81,North,11,0.0,1.0,14,0.00,,,0.00,0,LWC V2.00 B727,2013-05-02 03:20:00,
2013-05-01 20:25:00,74.2,21.9,29.81,NNE,32,2.0,4.0,14,0.00,,,0.00,0,LWC V2.00 B727,2013-05-02 03:25:00,
2013-05-01 20:30:00,74.4,22.1,29.81,NE,34,0.0,3.0,14,0.00,,,0.00,0,LWC V2.00 B727,2013-05-02 03:30:00,
2013-05-01 20:35:00,74.7,22.3,29.81,NE,40,0.0,1.0,14,0.00,,,0.00,0,LWC V2.00 B727,2013-05-02 03:35:00,
2013-05-01 20:40:00,74.5,22.2,29.81,NE,40,1.0,1.0,14,0.00,,,0.00,0,LWC V2.00 B727,2013-05-02 03:40:00,
2013-05-01 20:45:00,74.1,21.9,29.81,NE,41,0.0,3.0,14,0.00,,,0.00,0,LWC V2.00 B727,2013-05-02 03:45:00,
2013-05-01 20:50:00,73.9,21.7,29.82,NE,42,0.0,3.0,14,0.00,,,0.00,0,LWC V2.00 B727,2013-05-02 03:50:00,
2013-05-01 20:55:00,73.8,21.6,29.82,NE,42,3.0,4.0,14,0.00,,,0.00,0,LWC V2.00 B727,2013-05-02 03:55:00,
2013-05-01 21:00:00,74.0,21.8,29.82,ENE,57,1.0,5.0,14,0.00,,,0.00,0,LWC V2.00 B727,2013-05-02 04:00:00,
2013-05-01 21:01:00,74.0,21.8,29.82,ENE,57,2.0,5.0,14,0.00,,,0.00,0,LWC V2.00 B727,2013-05-02 04:01:00,
2013-05-01 21:06:00,73.7,21.5,29.82,ENE,57,2.0,4.0,14,0.00,,,0.00,0,LWC V2.00 B727,2013-05-02 04:06:00,
2013-05-01 21:11:00,73.4,21.3,29.83,ENE,61,3.0,3.0,14,0.00,,,0.00,0,LWC V2.00 B727,2013-05-02 04:11:00,
2013-05-01 21:16:00,73.1,21.1,29.83,ENE,67,1.0,4.0,14,0.00,,,0.00,0,LWC V2.00 B727,2013-05-02 04:16:00,
2013-05-01 21:21:00,72.7,20.8,29.83,ENE,67,1.0,3.0,14,0.00,,,0.00,0,LWC V2.00 B727,2013-05-02 04:21:00,
2013-05-01 21:26:00,72.5,20.6,29.83,ENE,66,0.0,3.0,14,0.00,,,0.00,0,LWC V2.00 B727,2013-05-02 04:26:00,
2013-05-01 21:31:00,72.2,20.4,29.83,ENE,66,1.0,3.0,14,0.00,,,0.00,0,LWC V2.00 B727,2013-05-02 04:31:00,
2013-05-01 21:36:00,72.1,21.9,29.83,ENE,67,2.0,3.0,15,0.00,,,0.00,0,LWC V2.00 B727,2013-05-02 04:36:00,
2013-05-01 21:41:00,72.3,20.4,29.84,ENE,67,0.0,3.0,14,0.00,,,0.00,0,LWC V2.00 B727,2013-05-02 04:41:00,
2013-05-01 21:46:00,72.2,20.4,29.84,ENE,67,0.0,2.0,14,0.00,,,0.00,0,LWC V2.00 B727,2013-05-02 04:46:00,
2013-05-01 21:51:00,72.2,20.4,29.84,ENE,66,0.0,4.0,14,0.00,,,0.00,0,LWC V2.00 B727,2013-05-02 04:51:00,
2013-05-01 21:56:00,72.3,20.4,29.84,ENE,66,2.0,2.0,14,0.00,,,0.00,0,LWC V2.00 B727,2013-05-02 04:56:00,
2013-05-01 22:01:00,72.4,20.5,29.84,ENE,66,1.0,3.0,14,0.00,,,0.00,0,LWC V2.00 B727,2013-05-02 05:01:00,
2013-05-01 22:06:00,72.1,20.3,29.85,ENE,66,0.0,0.0,14,0.00,,,0.00,0,LWC V2.00 B727,2013-05-02 05:06:00,
2013-05-01 22:11:00,70.4,22.1,29.84,ENE,66,0.0,0.0,16,0.00,,,0.00,0,LWC V2.00 B727,2013-05-02 05:11:00,
2013-05-01 22:16:00,70.6,22.2,29.84,ENE,66,0.0,0.0,16,0.00,,,0.00,0,LWC V2.00 B727,2013-05-02 05:16:00,
2013-05-01 22:21:00,71.1,21.1,29.85,ENE,66,0.0,0.0,15,0.00,,,0.00,0,LWC V2.00 B727,2013-05-02 05:21:00,
2013-05-01 22:26:00,72.1,20.3,29.85,ENE,66,0.0,1.0,14,0.00,,,0.00,0,LWC V2.00 B727,2013-05-02 05:26:00,
2013-05-01 22:31:00,71.0,21.0,29.85,ENE,66,3.0,3.0,15,0.00,,,0.00,0,LWC V2.00 B727,2013-05-02 05:31:00,
2013-05-01 22:36:00,71.7,21.6,29.85,ENE,60,0.0,0.0,15,0.00,,,0.00,0,LWC V2.00 B727,2013-05-02 05:36:00,
2013-05-01 22:41:00,72.3,20.4,29.85,ENE,60,0.0,0.0,14,0.00,,,0.00,0,LWC V2.00 B727,2013-05-02 05:41:00,
2013-05-01 22:46:00,72.1,20.3,29.85,ENE,63,3.0,3.0,14,0.00,,,0.00,0,LWC V2.00 B727,2013-05-02 05:46:00,
2013-05-01 22:51:00,71.7,21.6,29.85,ENE,65,0.0,2.0,15,0.00,,,0.00,0,LWC V2.00 B727,2013-05-02 05:51:00,
2013-05-01 22:56:00,70.4,22.1,29.85,NE,34,4.0,6.0,16,0.00,,,0.00,0,LWC V2.00 B727,2013-05-02 05:56:00,
2013-05-01 23:01:00,70.6,22.2,29.85,NE,50,1.0,1.0,16,0.00,,,0.00,0,LWC V2.00 B727,2013-05-02 06:01:00,
2013-05-01 23:06:00,71.0,21.0,29.86,ENE,60,3.0,4.0,15,0.00,,,0.00,0,LWC V2.00 B727,2013-05-02 06:06:00,
2013-05-01 23:11:00,70.2,21.9,29.86,NE,50,1.0,2.0,16,0.00,,,0.00,0,LWC V2.00 B727,2013-05-02 06:11:00,
2013-05-01 23:16:00,70.3,22.0,29.86,East,86,2.0,5.0,16,0.00,,,0.00,0,LWC V2.00 B727,2013-05-02 06:16:00,
2013-05-01 23:21:00,70.6,22.2,29.86,ENE,70,3.0,4.0,16,0.00,,,0.00,0,LWC V2.00 B727,2013-05-02 06:21:00,
2013-05-01 23:26:00,70.8,22.4,29.86,ENE,66,0.0,1.0,16,0.00,,,0.00,0,LWC V2.00 B727,2013-05-02 06:26:00,
2013-05-01 23:31:00,70.5,22.2,29.86,NE,53,1.0,6.0,16,0.00,,,0.00,0,LWC V2.00 B727,2013-05-02 06:31:00,
2013-05-01 23:36:00,71.4,21.3,29.86,NE,53,0.0,1.0,15,0.00,,,0.00,0,LWC V2.00 B727,2013-05-02 06:36:00,
2013-05-01 23:38:00,71.7,21.6,29.86,NE,54,0.0,2.0,15,0.00,,,0.00,0,LWC V2.00 B727,2013-05-02 06:38:00,
2013-05-01 23:43:00,71.7,21.6,29.86,NE,54,0.0,1.0,15,0.00,,,0.00,0,LWC V2.00 B727,2013-05-02 06:43:00,
2013-05-01 23:48:00,71.6,21.5,29.86,NE,53,0.0,2.0,15,0.00,,,0.00,0,LWC V2.00 B727,2013-05-02 06:48:00,
2013-05-01 23:53:00,71.3,21.3,29.86,NE,51,0.0,0.0,15,0.00,,,0.00,0,LWC V2.00 B727,2013-05-02 06:53:00,
2013-05-01 23:58:00,70.8,22.4,29.86,NE,53,3.0,4.0,16,0.00,,,0.00,0,LWC V2.00 B727,2013-05-02 06:58:00,